Home > Products > Valid Products > TAF

000
FTUS43 KEAX 281700
TAFSTJ
TAF
KSTJ 281726Z 2818/2918 36007KT P6SM SCT060 SCT250
     FM290800 35004KT P6SM BKN080=



000
FTUS43 KEAX 281700
TAFMKC
TAF
KMKC 281726Z 2818/2918 36006KT P6SM SCT060 SCT250
     FM290900 33004KT P6SM BKN080=



000
FTUS43 KEAX 281700
TAFMCI
TAF
KMCI 281726Z 2818/2918 36007KT P6SM SCT060 SCT250
     FM290900 33005KT P6SM BKN080=



000
FTUS43 KEAX 281100
TAFSTJ
TAF
KSTJ 281120Z 2812/2912 03004KT P6SM SCT250
     FM281800 01009KT P6SM SCT070
     FM290100 34003KT P6SM SCT080=



000
FTUS43 KEAX 281100
TAFMCI
TAF
KMCI 281120Z 2812/2912 05005KT P6SM SCT250
     FM281800 01009KT P6SM SCT070
     FM290100 34005KT P6SM SCT090=



000
FTUS43 KEAX 281100
TAFMCI
TAF
KMCI 281120Z 2812/2912 05005KT P6SM SCT250
     FM281800 01009KT P6SM SCT070
     FM290100 34005KT P6SM SCT090=



000
FTUS43 KEAX 281100
TAFSTJ
TAF
KSTJ 281120Z 2812/2912 03004KT P6SM SCT250
     FM281800 01009KT P6SM SCT070
     FM290100 34003KT P6SM SCT080=



000
FTUS43 KEAX 281100
TAFMKC
TAF
KMKC 281120Z 2812/2912 04004KT P6SM SCT250
     FM281800 01008KT P6SM SCT070
     FM290100 34003KT P6SM SCT090=



000
FTUS43 KEAX 281100
TAFMKC
TAF
KMKC 281120Z 2812/2912 04004KT P6SM SCT250
     FM281800 01008KT P6SM SCT070
     FM290100 34003KT P6SM SCT090=



000
FTUS43 KEAX 280500
TAFMCI
TAF
KMCI 280520Z 2806/2906 02007KT P6SM SCT250
     FM290100 35005KT P6SM FEW250=



000
FTUS43 KEAX 280500
TAFMKC
TAF
KMKC 280520Z 2806/2906 02006KT P6SM SCT250
     FM290100 35004KT P6SM FEW250=



000
FTUS43 KEAX 280500
TAFSTJ
TAF
KSTJ 280520Z 2806/2906 01008KT P6SM SCT250
     FM290100 34003KT P6SM FEW250=



000
FTUS43 KEAX 272300
TAFSTJ
TAF
KSTJ 272320Z 2800/2824 04005KT P6SM SCT200
     FM281700 01007KT P6SM SCT250=



000
FTUS43 KEAX 272300
TAFMCI
TAF
KMCI 272320Z 2800/2824 06008KT P6SM SCT200
     FM281100 02008KT P6SM SCT250=



000
FTUS43 KEAX 272300
TAFMKC
TAF
KMKC 272320Z 2800/2824 06006KT P6SM SCT200
     FM281100 03007KT P6SM SCT250=



000
FTUS43 KEAX 272300
TAFMKC
TAF
KMKC 272320Z 2800/2824 06006KT P6SM SCT200
     FM281100 03007KT P6SM SCT250=



000
FTUS43 KEAX 272300
TAFSTJ
TAF
KSTJ 272320Z 2800/2824 04005KT P6SM SCT200
     FM281700 01007KT P6SM SCT250=



000
FTUS43 KEAX 272300
TAFMCI
TAF
KMCI 272320Z 2800/2824 06008KT P6SM SCT200
     FM281100 02008KT P6SM SCT250=



000
FTUS43 KEAX 271700
TAFSTJ
TAF
KSTJ 271720Z 2718/2818 07011KT P6SM SCT200
     FM280100 03003KT P6SM FEW200=



000
FTUS43 KEAX 271700
TAFMKC
TAF
KMKC 271720Z 2718/2818 07011KT P6SM SCT200
     FM280100 04005KT P6SM FEW250=



000
FTUS43 KEAX 271700
TAFMCI
TAF
KMCI 271720Z 2718/2818 07013KT P6SM SCT200
     FM280100 04005KT P6SM FEW250=



000
FTUS43 KEAX 271700
TAFMKC
TAF
KMKC 271720Z 2718/2818 07011KT P6SM SCT200
     FM280100 04005KT P6SM FEW250=



000
FTUS43 KEAX 271700
TAFSTJ
TAF
KSTJ 271720Z 2718/2818 07011KT P6SM SCT200
     FM280100 03003KT P6SM FEW200=



000
FTUS43 KEAX 271700
TAFMCI
TAF
KMCI 271720Z 2718/2818 07013KT P6SM SCT200
     FM280100 04005KT P6SM FEW250=



000
FTUS43 KEAX 271100
TAFSTJ
TAF
KSTJ 271120Z 2712/2812 06006KT P6SM SCT250
     FM271700 04011KT P6SM SCT250
     FM280000 05004KT P6SM FEW250=



000
FTUS43 KEAX 271100
TAFMKC
TAF
KMKC 271120Z 2712/2812 06007KT P6SM SCT250
     FM271700 05011KT P6SM SCT250
     FM280000 05006KT P6SM FEW250=



000
FTUS43 KEAX 271100
TAFMCI
TAF
KMCI 271120Z 2712/2812 06008KT P6SM SCT250
     FM271700 04012KT P6SM SCT250
     FM280000 04006KT P6SM FEW250=



000
FTUS43 KEAX 270500
TAFMCI
TAF
KMCI 270520Z 2706/2806 06008KT P6SM SCT250
     FM271700 04012KT P6SM SCT250=



000
FTUS43 KEAX 270500
TAFMKC
TAF
KMKC 270520Z 2706/2806 06007KT P6SM SCT250
     FM271600 04011KT P6SM SCT250=



000
FTUS43 KEAX 270500
TAFMKC
TAF
KMKC 270520Z 2706/2806 06007KT P6SM SCT250
     FM271600 04011KT P6SM SCT250=



000
FTUS43 KEAX 270500
TAFMCI
TAF
KMCI 270520Z 2706/2806 06008KT P6SM SCT250
     FM271700 04012KT P6SM SCT250=



000
FTUS43 KEAX 270500
TAFSTJ
TAF
KSTJ 270520Z 2706/2806 04004KT P6SM SCT250
     FM271700 04011KT P6SM SCT250=



000
FTUS43 KEAX 270500
TAFSTJ
TAF
KSTJ 270520Z 2706/2806 04004KT P6SM SCT250
     FM271700 04011KT P6SM SCT250=



000
FTUS43 KEAX 262300
TAFMCI
TAF
KMCI 262320Z 2700/2724 06010KT P6SM SKC
     FM271700 05015G22KT P6SM SCT250=



000
FTUS43 KEAX 262300
TAFMCI
TAF
KMCI 262320Z 2700/2724 06010KT P6SM SKC
     FM271700 05015G22KT P6SM SCT250=



000
FTUS43 KEAX 262300
TAFSTJ
TAF
KSTJ 262320Z 2700/2724 07010KT P6SM SKC
     FM270500 04004KT P6SM SKC
     FM271700 04013G20KT P6SM SCT250=



000
FTUS43 KEAX 262300
TAFSTJ
TAF
KSTJ 262320Z 2700/2724 07010KT P6SM SKC
     FM270500 04004KT P6SM SKC
     FM271700 04013G20KT P6SM SCT250=



000
FTUS43 KEAX 262300
TAFMKC
TAF
KMKC 262320Z 2700/2724 06008KT P6SM SKC
     FM271600 06012G19KT P6SM SCT250=



000
FTUS43 KEAX 262300
TAFMKC
TAF
KMKC 262320Z 2700/2724 06008KT P6SM SKC
     FM271600 06012G19KT P6SM SCT250=



000
FTUS43 KEAX 262000 AAB
TAFMCI
TAF AMD
KMCI 262001Z 2620/2718 08014KT P6SM SCT035
     FM262300 06007KT P6SM SKC=



000
FTUS43 KEAX 262000 AAA
TAFMKC
TAF AMD
KMKC 262001Z 2620/2718 06015KT P6SM SCT040
     FM262300 06007KT P6SM SKC=



000
FTUS43 KEAX 261900 AAA
TAFMCI
TAF AMD
KMCI 261911Z 2619/2718 06014KT P6SM SCT025 BKN035
      TEMPO 2619/2620 BKN025
     FM262000 07014KT P6SM FEW035
     FM262300 06007KT P6SM SKC=



000
FTUS43 KEAX 261900 AAA
TAFMCI
TAF AMD
KMCI 261911Z 2619/2718 06014KT P6SM SCT025 BKN035
      TEMPO 2619/2620 BKN025
     FM262000 07014KT P6SM FEW035
     FM262300 06007KT P6SM SKC=



000
FTUS43 KEAX 261700
TAFSTJ
TAF
KSTJ 261728Z 2618/2718 08014KT P6SM SCT025 BKN035
     FM261900 07014KT P6SM FEW035
     FM262300 06007KT P6SM SKC=



000
FTUS43 KEAX 261700
TAFSTJ
TAF
KSTJ 261728Z 2618/2718 08014KT P6SM SCT025 BKN035
     FM261900 07014KT P6SM FEW035
     FM262300 06007KT P6SM SKC=



000
FTUS43 KEAX 261700
TAFMKC
TAF
KMKC 261728Z 2618/2718 08012KT P6SM SCT025 BKN035
      TEMPO 2618/2619 BKN025
     FM261930 08013KT P6SM FEW035
     FM262300 06007KT P6SM SKC=



000
FTUS43 KEAX 261700
TAFMCI
TAF
KMCI 261728Z 2618/2718 06014KT P6SM SCT025 BKN035
      TEMPO 2618/2619 BKN025
     FM261930 07014KT P6SM FEW035
     FM262300 06007KT P6SM SKC=



000
FTUS43 KEAX 261700
TAFMKC
TAF
KMKC 261728Z 2618/2718 08012KT P6SM SCT025 BKN035
      TEMPO 2618/2619 BKN025
     FM261930 08013KT P6SM FEW035
     FM262300 06007KT P6SM SKC=



000
FTUS43 KEAX 261700
TAFMCI
TAF
KMCI 261728Z 2618/2718 06014KT P6SM SCT025 BKN035
      TEMPO 2618/2619 BKN025
     FM261930 07014KT P6SM FEW035
     FM262300 06007KT P6SM SKC=



000
FTUS43 KEAX 261300 AAA
TAFMCI
TAF AMD
KMCI 261316Z 2613/2712 07012KT P6SM OVC018
     FM261500 07010KT P6SM BKN015
     FM261800 08012G20KT P6SM SCT035
     FM262300 07007KT P6SM SKC=



000
FTUS43 KEAX 261300 AAA
TAFSTJ
TAF AMD
KSTJ 261315Z 2613/2712 06010KT 6SM BR OVC012
     FM261500 07010KT P6SM BKN015
     FM261800 07012G20KT P6SM SCT035
     FM262300 04007KT P6SM SKC=



000
FTUS43 KEAX 261300 AAA
TAFMKC
TAF AMD
KMKC 261314Z 2613/2712 07010KT 6SM BR OVC012
     FM261500 07010KT P6SM BKN015
     FM261800 07012G20KT P6SM SCT035
     FM262300 06006KT P6SM SKC=



000
FTUS43 KEAX 261100
TAFMCI
TAF
KMCI 261120Z 2612/2712 06010KT 6SM BR OVC012
      TEMPO 2612/2615 OVC007
     FM261500 07010KT P6SM BKN015
     FM261800 08012G20KT P6SM SCT035
     FM262300 07007KT P6SM SKC=



000
FTUS43 KEAX 261100
TAFMKC
TAF
KMKC 261120Z 2612/2712 06010KT 6SM BR OVC012
      TEMPO 2612/2615 OVC009
     FM261500 07010KT P6SM BKN015
     FM261800 07012G20KT P6SM SCT035
     FM262300 06006KT P6SM SKC=



000
FTUS43 KEAX 261100
TAFSTJ
TAF
KSTJ 261120Z 2612/2712 06010KT 6SM BR OVC012
      TEMPO 2612/2615 5SM BR OVC007
     FM261500 07010KT P6SM BKN015
     FM261800 07012G20KT P6SM SCT035
     FM262300 04007KT P6SM SKC=



000
FTUS43 KEAX 260500
TAFSTJ
TAF
KSTJ 260520Z 2606/2706 04010KT P6SM OVC010
     FM261500 07010KT P6SM BKN015
     FM261800 08011KT P6SM SCT035=



000
FTUS43 KEAX 260500
TAFSTJ
TAF
KSTJ 260520Z 2606/2706 04010KT P6SM OVC010
     FM261500 07010KT P6SM BKN015
     FM261800 08011KT P6SM SCT035=



000
FTUS43 KEAX 260500
TAFMCI
TAF
KMCI 260520Z 2606/2706 05010KT P6SM OVC005
      TEMPO 2606/2608 3SM -DZ OVC004
     FM261500 07010KT P6SM BKN015
     FM261800 08012KT P6SM SCT035=



000
FTUS43 KEAX 260500
TAFMKC
TAF
KMKC 260520Z 2606/2706 05010KT P6SM OVC005
      TEMPO 2606/2608 4SM -DZ OVC004
     FM261500 07010KT P6SM BKN015
     FM261800 08012KT P6SM SCT035=



000
FTUS43 KEAX 260500
TAFMCI
TAF
KMCI 260520Z 2606/2706 05010KT P6SM OVC005
      TEMPO 2606/2608 3SM -DZ OVC004
     FM261500 07010KT P6SM BKN015
     FM261800 08012KT P6SM SCT035=



000
FTUS43 KEAX 260500
TAFMKC
TAF
KMKC 260520Z 2606/2706 05010KT P6SM OVC005
      TEMPO 2606/2608 4SM -DZ OVC004
     FM261500 07010KT P6SM BKN015
     FM261800 08012KT P6SM SCT035=



000
FTUS43 KEAX 260100 AAA
TAFMCI
TAF AMD
KMCI 260129Z 2601/2624 03010KT P6SM OVC008
      TEMPO 2601/2603 3SM BR
     FM261500 07010KT P6SM BKN015
     FM261800 08012KT P6SM BKN035=



000
FTUS43 KEAX 252300
TAFMKC
TAF
KMKC 252320Z 2600/2624 03010KT P6SM OVC010
     FM261500 07009KT P6SM BKN015
     FM261800 08011KT P6SM BKN035=



000
FTUS43 KEAX 252300
TAFMKC
TAF
KMKC 252320Z 2600/2624 03010KT P6SM OVC010
     FM261500 07009KT P6SM BKN015
     FM261800 08011KT P6SM BKN035=



000
FTUS43 KEAX 252300
TAFMCI
TAF
KMCI 252320Z 2600/2624 03010KT P6SM OVC008
     FM261500 07010KT P6SM BKN015
     FM261800 08012KT P6SM BKN035=



000
FTUS43 KEAX 252300
TAFMCI
TAF
KMCI 252320Z 2600/2624 03010KT P6SM OVC008
     FM261500 07010KT P6SM BKN015
     FM261800 08012KT P6SM BKN035=



000
FTUS43 KEAX 252300
TAFSTJ
TAF
KSTJ 252320Z 2600/2624 04010KT P6SM OVC010
     FM261500 07010KT P6SM BKN015
     FM261800 08011KT P6SM BKN035=



000
FTUS43 KEAX 252300
TAFSTJ
TAF
KSTJ 252320Z 2600/2624 04010KT P6SM OVC010
     FM261500 07010KT P6SM BKN015
     FM261800 08011KT P6SM BKN035=



    US Dept of Commerce
    National Oceanic and Atmospheric Administration
    National Weather Service
    1325 East West Highway
    Silver Spring, MD 20910
    Page Author: NWS Internet Services Team
Disclaimer
Information Quality
Credits
Glossary
Privacy Policy
Freedom of Information Act (FOIA)
About Us
Career Opportunities